Time;durP1;ratioP1;P1;durP2;ratioP2;P2;SDS_P1;SDS_P2;PMS_P1;PMS_P2;Temp;Humidity;BMP_temperature;BMP_pressure;BME280_temperature;BME280_humidity;BME280_pressure;Samples;Min_cycle;Max_cycle;Signal;HPM_P1;HPM_P2
2022/06/15 00:00:34;;;;;;;;;;;21.60;44.60;;;;;;5031622;28;20311;-61
2022/06/15 00:03:01;;;;;;;;;;;21.50;44.50;;;;;;5024245;28;20330;-62
2022/06/15 00:05:29;;;;;;;;;;;21.60;44.60;;;;;;5042208;28;19948;-60
2022/06/15 00:07:56;;;;;;;;;;;21.60;44.60;;;;;;5028982;28;19930;-60
2022/06/15 00:10:23;;;;;;;;;;;21.60;44.60;;;;;;5032604;28;19929;-60
2022/06/15 00:12:50;;;;;;;;;;;21.60;44.70;;;;;;5001065;28;19956;-60
2022/06/15 00:15:17;;;;;;;;;;;21.60;44.70;;;;;;5011090;28;19929;-62
2022/06/15 00:17:44;;;;;;;;;;;21.50;44.70;;;;;;5026857;28;20023;-60
2022/06/15 00:20:11;;;;;;;;;;;21.50;44.60;;;;;;5008830;28;19932;-60
2022/06/15 00:22:40;;;;;;;;;;;21.50;44.60;;;;;;5018131;28;19932;-60
2022/06/15 00:25:07;;;;;;;;;;;21.50;44.60;;;;;;5019239;28;20359;-60
2022/06/15 00:27:34;;;;;;;;;;;21.60;44.70;;;;;;5027565;28;20016;-60
2022/06/15 00:30:00;;;;;;;;;;;21.50;44.60;;;;;;5015276;28;19968;-60
2022/06/15 00:32:27;;;;;;;;;;;21.60;44.70;;;;;;5035655;28;19933;-60
2022/06/15 00:34:54;;;;;;;;;;;21.50;44.60;;;;;;5032810;28;19969;-60
2022/06/15 00:37:21;;;;;;;;;;;21.50;44.70;;;;;;5017362;28;19975;-60
2022/06/15 00:39:49;;;;;;;;;;;21.50;44.70;;;;;;5012909;28;19983;-60
2022/06/15 00:42:16;;;;;;;;;;;21.50;44.70;;;;;;5029469;28;19925;-60
2022/06/15 00:44:43;;;;;;;;;;;21.50;44.70;;;;;;5013798;28;19925;-61
2022/06/15 00:47:19;;;;;;;;;;;21.50;44.70;;;;;;5013667;28;19925;-60
2022/06/15 00:49:47;;;;;;;;;;;21.50;44.70;;;;;;5024187;28;19925;-61
2022/06/15 00:52:14;;;;;;;;;;;21.50;44.80;;;;;;5023462;28;19929;-61
2022/06/15 00:54:41;;;;;;;;;;;21.50;44.80;;;;;;5002579;28;19930;-60
2022/06/15 00:57:09;;;;;;;;;;;21.50;44.80;;;;;;5013708;28;19975;-61
2022/06/15 00:59:36;;;;;;;;;;;21.50;44.80;;;;;;4997347;28;19977;-60
2022/06/15 01:02:04;;;;;;;;;;;21.50;44.80;;;;;;5013406;28;19925;-60
2022/06/15 01:04:31;;;;;;;;;;;21.50;44.80;;;;;;5008232;28;19925;-60
2022/06/15 01:07:00;;;;;;;;;;;21.50;44.80;;;;;;5018853;28;20290;-60
2022/06/15 01:09:28;;;;;;;;;;;21.50;44.80;;;;;;5013832;28;19960;-60
2022/06/15 01:11:57;;;;;;;;;;;21.50;44.80;;;;;;5014115;28;19960;-61
2022/06/15 01:14:38;;;;;;;;;;;21.50;44.80;;;;;;5029032;28;20350;-60
2022/06/15 01:17:11;;;;;;;;;;;21.50;44.90;;;;;;5030866;28;20292;-59
2022/06/15 01:19:46;;;;;;;;;;;21.50;44.90;;;;;;5006495;28;19925;-61
2022/06/15 01:22:16;;;;;;;;;;;21.50;44.90;;;;;;5030307;28;20537;-60
2022/06/15 01:24:52;;;;;;;;;;;21.50;44.90;;;;;;5028246;28;19929;-60
2022/06/15 01:27:26;;;;;;;;;;;21.50;44.90;;;;;;5043686;28;20338;-61
2022/06/15 01:30:12;;;;;;;;;;;21.50;44.90;;;;;;5005778;28;19983;-60
2022/06/15 01:32:42;;;;;;;;;;;21.50;44.90;;;;;;5030244;28;19933;-60
2022/06/15 01:35:12;;;;;;;;;;;21.50;45.00;;;;;;5012702;28;19932;-61
2022/06/15 01:37:40;;;;;;;;;;;21.50;45.00;;;;;;5013325;28;19925;-60
2022/06/15 01:40:08;;;;;;;;;;;21.50;45.00;;;;;;5025579;28;19928;-61
2022/06/15 01:42:36;;;;;;;;;;;21.50;45.00;;;;;;5011574;28;20382;-62
2022/06/15 01:45:05;;;;;;;;;;;21.50;45.00;;;;;;5029144;28;19936;-62
2022/06/15 01:47:33;;;;;;;;;;;21.50;45.00;;;;;;5017658;28;20343;-63
2022/06/15 01:50:02;;;;;;;;;;;21.50;45.00;;;;;;5031237;28;19925;-62
2022/06/15 01:52:28;;;;;;;;;;;21.50;45.00;;;;;;5030669;28;20412;-61
2022/06/15 01:54:57;;;;;;;;;;;21.50;45.00;;;;;;5013133;28;19925;-62
2022/06/15 01:57:24;;;;;;;;;;;21.50;45.00;;;;;;5024223;28;19952;-63
2022/06/15 01:59:51;;;;;;;;;;;21.50;45.00;;;;;;5029589;28;19952;-63
2022/06/15 02:02:19;;;;;;;;;;;21.50;45.00;;;;;;5005937;28;19926;-62
2022/06/15 02:04:46;;;;;;;;;;;21.50;45.10;;;;;;5010242;28;19925;-60
2022/06/15 02:07:20;;;;;;;;;;;21.50;45.10;;;;;;5033127;28;19925;-60
2022/06/15 02:09:48;;;;;;;;;;;21.50;45.10;;;;;;5024849;28;20503;-60
2022/06/15 02:12:15;;;;;;;;;;;21.50;45.10;;;;;;5012300;28;19926;-61
2022/06/15 02:14:42;;;;;;;;;;;21.50;45.10;;;;;;5015558;28;19929;-60
2022/06/15 02:17:09;;;;;;;;;;;21.50;45.10;;;;;;5014376;28;19925;-60
2022/06/15 02:19:36;;;;;;;;;;;21.50;45.10;;;;;;5014509;28;19925;-61
2022/06/15 02:22:04;;;;;;;;;;;21.50;45.10;;;;;;5034044;28;19924;-60
2022/06/15 02:24:32;;;;;;;;;;;21.50;45.10;;;;;;5028986;28;20408;-60
2022/06/15 02:26:59;;;;;;;;;;;21.50;45.10;;;;;;5027543;28;19925;-60
2022/06/15 02:29:27;;;;;;;;;;;21.50;45.10;;;;;;5026572;28;20267;-60
2022/06/15 02:31:55;;;;;;;;;;;21.50;45.10;;;;;;5021039;28;19931;-60
2022/06/15 02:34:21;;;;;;;;;;;21.50;45.10;;;;;;5012198;28;19973;-60
2022/06/15 02:36:48;;;;;;;;;;;21.50;45.10;;;;;;5007409;28;19987;-60
2022/06/15 02:39:15;;;;;;;;;;;21.50;45.10;;;;;;5009944;28;19948;-60
2022/06/15 02:41:43;;;;;;;;;;;21.50;45.10;;;;;;5016009;28;19933;-60
2022/06/15 02:44:11;;;;;;;;;;;21.50;45.10;;;;;;5009102;28;19971;-60
2022/06/15 02:46:38;;;;;;;;;;;21.50;45.10;;;;;;5016923;28;19924;-60
2022/06/15 02:49:05;;;;;;;;;;;21.50;45.10;;;;;;5033287;28;20036;-61
2022/06/15 02:51:32;;;;;;;;;;;21.50;45.20;;;;;;5013575;28;19964;-60
2022/06/15 02:53:59;;;;;;;;;;;21.50;45.10;;;;;;5020258;28;20394;-60
2022/06/15 02:56:26;;;;;;;;;;;21.50;45.10;;;;;;5032163;28;19933;-61
2022/06/15 02:58:57;;;;;;;;;;;21.50;45.10;;;;;;5013733;28;19991;-60
2022/06/15 03:01:24;;;;;;;;;;;21.50;45.10;;;;;;5006972;28;19926;-61
2022/06/15 03:03:51;;;;;;;;;;;21.50;45.10;;;;;;5034551;28;19925;-62
2022/06/15 03:06:18;;;;;;;;;;;21.50;45.10;;;;;;5029842;28;19925;-62
2022/06/15 03:08:45;;;;;;;;;;;21.50;45.10;;;;;;5032257;28;19926;-62
2022/06/15 03:11:12;;;;;;;;;;;21.50;45.10;;;;;;5006217;28;19921;-63
2022/06/15 03:13:39;;;;;;;;;;;21.50;45.20;;;;;;5025190;28;20335;-62
2022/06/15 03:16:07;;;;;;;;;;;21.50;45.80;;;;;;5006704;28;19933;-63
2022/06/15 03:18:34;;;;;;;;;;;21.50;45.20;;;;;;5047693;28;19975;-63
2022/06/15 03:21:01;;;;;;;;;;;21.50;45.10;;;;;;5015846;28;19926;-63
2022/06/15 03:23:28;;;;;;;;;;;21.50;45.20;;;;;;5015195;28;19929;-62
2022/06/15 03:25:55;;;;;;;;;;;21.50;45.20;;;;;;5022582;28;19925;-62
2022/06/15 03:28:21;;;;;;;;;;;21.50;45.20;;;;;;5035573;28;19979;-62
2022/06/15 03:30:48;;;;;;;;;;;21.50;45.20;;;;;;5031710;28;19948;-62
2022/06/15 03:33:17;;;;;;;;;;;21.50;45.20;;;;;;5009700;28;19925;-63
2022/06/15 03:35:43;;;;;;;;;;;21.50;45.20;;;;;;5031762;28;19940;-62
2022/06/15 03:38:10;;;;;;;;;;;21.50;45.20;;;;;;5029674;28;19925;-62
2022/06/15 03:40:37;;;;;;;;;;;21.40;45.20;;;;;;5026492;28;19932;-62
2022/06/15 03:43:04;;;;;;;;;;;21.50;45.30;;;;;;5014011;28;19976;-62
2022/06/15 03:45:31;;;;;;;;;;;21.50;45.30;;;;;;5005516;28;19929;-62
2022/06/15 03:47:58;;;;;;;;;;;21.50;45.30;;;;;;5028495;28;20009;-62
2022/06/15 03:50:26;;;;;;;;;;;21.50;45.30;;;;;;5036389;28;20347;-62
2022/06/15 03:52:53;;;;;;;;;;;21.50;45.30;;;;;;5032902;28;20028;-62
2022/06/15 03:55:20;;;;;;;;;;;21.50;45.30;;;;;;5027359;28;19972;-64
2022/06/15 03:57:47;;;;;;;;;;;21.50;45.30;;;;;;5014081;28;19925;-62
2022/06/15 04:00:14;;;;;;;;;;;21.50;45.30;;;;;;5030206;28;19940;-62
2022/06/15 04:02:41;;;;;;;;;;;21.50;45.30;;;;;;5001003;28;19963;-62
2022/06/15 04:05:08;;;;;;;;;;;21.50;45.30;;;;;;5032512;28;19925;-62
2022/06/15 04:10:20;;;;;;;;;;;21.50;45.40;;;;;;5010968;28;19933;-62
2022/06/15 04:12:47;;;;;;;;;;;21.40;45.30;;;;;;5031301;28;19979;-62
2022/06/15 04:15:16;;;;;;;;;;;21.50;46.00;;;;;;5031505;28;19929;-62
2022/06/15 04:17:44;;;;;;;;;;;21.50;45.40;;;;;;5015701;28;19929;-62
2022/06/15 04:23:06;;;;;;;;;;;21.50;45.40;;;;;;4970305;28;19965;-62
2022/06/15 04:25:33;;;;;;;;;;;21.40;45.30;;;;;;5014734;28;19929;-62
2022/06/15 04:28:00;;;;;;;;;;;21.50;45.50;;;;;;5022265;28;19978;-63
2022/06/15 04:30:27;;;;;;;;;;;21.50;45.50;;;;;;5007011;28;19925;-64
2022/06/15 04:32:54;;;;;;;;;;;21.50;45.50;;;;;;5013530;28;20066;-62
2022/06/15 04:35:20;;;;;;;;;;;21.50;45.50;;;;;;5031869;28;20634;-62
2022/06/15 04:37:47;;;;;;;;;;;21.50;45.50;;;;;;5019899;28;19933;-62
2022/06/15 04:40:15;;;;;;;;;;;21.50;45.50;;;;;;5014542;28;19937;-62
2022/06/15 04:42:42;;;;;;;;;;;21.50;45.50;;;;;;5013170;28;19975;-62
2022/06/15 04:45:10;;;;;;;;;;;21.50;45.50;;;;;;5042919;28;19926;-62
2022/06/15 04:47:36;;;;;;;;;;;21.50;45.60;;;;;;5004661;28;19978;-62
2022/06/15 04:50:04;;;;;;;;;;;21.50;45.60;;;;;;5014420;28;19929;-62
2022/06/15 04:52:30;;;;;;;;;;;21.50;45.60;;;;;;5014901;28;19932;-62
2022/06/15 04:54:57;;;;;;;;;;;21.50;45.60;;;;;;5014536;28;19925;-62
2022/06/15 04:57:25;;;;;;;;;;;21.50;45.60;;;;;;5038924;28;20373;-63
2022/06/15 04:59:52;;;;;;;;;;;21.50;45.60;;;;;;5033823;28;19979;-63
2022/06/15 05:02:19;;;;;;;;;;;21.50;45.60;;;;;;5008136;28;19941;-63
2022/06/15 05:04:45;;;;;;;;;;;21.50;45.60;;;;;;5014818;28;19929;-63
2022/06/15 05:07:12;;;;;;;;;;;21.50;45.60;;;;;;5031886;28;19925;-62
2022/06/15 05:09:39;;;;;;;;;;;21.50;45.60;;;;;;5014464;28;19925;-63
2022/06/15 05:12:06;;;;;;;;;;;21.50;45.50;;;;;;5013727;28;19925;-63
2022/06/15 05:14:35;;;;;;;;;;;21.50;45.50;;;;;;5013278;28;19961;-63
2022/06/15 05:17:01;;;;;;;;;;;21.50;45.50;;;;;;5016320;28;20381;-63
2022/06/15 05:19:29;;;;;;;;;;;21.50;45.50;;;;;;5034935;28;19988;-63
2022/06/15 05:21:56;;;;;;;;;;;21.50;45.50;;;;;;5008889;28;19936;-63
2022/06/15 05:24:23;;;;;;;;;;;21.50;45.60;;;;;;5030613;28;19929;-62
2022/06/15 05:26:49;;;;;;;;;;;21.50;45.50;;;;;;5013583;28;19929;-62
2022/06/15 05:29:16;;;;;;;;;;;21.50;45.50;;;;;;5018149;28;20047;-63
2022/06/15 05:31:44;;;;;;;;;;;21.50;45.50;;;;;;5024436;28;19941;-63
2022/06/15 05:34:11;;;;;;;;;;;21.50;45.50;;;;;;5009853;28;19929;-63
2022/06/15 05:36:37;;;;;;;;;;;21.50;45.50;;;;;;5030491;28;20391;-62
2022/06/15 05:39:05;;;;;;;;;;;21.50;45.50;;;;;;5029966;28;19932;-62
2022/06/15 05:41:31;;;;;;;;;;;21.50;45.50;;;;;;5044023;28;19925;-62
2022/06/15 05:43:58;;;;;;;;;;;21.50;45.50;;;;;;5010600;28;19925;-63
2022/06/15 05:46:26;;;;;;;;;;;21.50;45.50;;;;;;5012232;28;20346;-63
2022/06/15 05:48:54;;;;;;;;;;;21.50;45.50;;;;;;5028233;28;19929;-63
2022/06/15 05:51:21;;;;;;;;;;;21.50;45.50;;;;;;5012633;28;19996;-62
2022/06/15 05:53:47;;;;;;;;;;;21.50;45.50;;;;;;5002226;28;19925;-63
2022/06/15 05:56:14;;;;;;;;;;;21.50;45.50;;;;;;5008848;28;19932;-63
2022/06/15 05:58:41;;;;;;;;;;;21.50;45.50;;;;;;5030708;28;19929;-63
2022/06/15 06:01:09;;;;;;;;;;;21.50;45.50;;;;;;5006168;28;20409;-62
2022/06/15 06:03:35;;;;;;;;;;;21.50;45.50;;;;;;5009673;28;20314;-62
2022/06/15 06:06:04;;;;;;;;;;;21.50;45.40;;;;;;5005608;28;19929;-62
2022/06/15 06:08:31;;;;;;;;;;;21.50;45.50;;;;;;5012150;28;19921;-62
2022/06/15 06:10:58;;;;;;;;;;;21.50;45.40;;;;;;5029959;28;19933;-63
2022/06/15 06:13:25;;;;;;;;;;;21.50;45.40;;;;;;5013541;28;20290;-62
2022/06/15 06:15:52;;;;;;;;;;;21.50;45.40;;;;;;5006322;28;20028;-63
2022/06/15 06:18:18;;;;;;;;;;;21.50;45.40;;;;;;5030430;28;19925;-63
2022/06/15 06:20:45;;;;;;;;;;;21.50;45.40;;;;;;5027868;28;19937;-63
2022/06/15 06:23:14;;;;;;;;;;;21.50;45.40;;;;;;5008354;28;19936;-63
2022/06/15 06:25:41;;;;;;;;;;;21.50;45.40;;;;;;5030082;28;20596;-63
2022/06/15 06:28:09;;;;;;;;;;;21.50;45.40;;;;;;5015725;28;19929;-63
2022/06/15 06:30:36;;;;;;;;;;;21.50;45.40;;;;;;5027569;28;19933;-63
2022/06/15 06:33:03;;;;;;;;;;;21.50;45.40;;;;;;5032764;28;19925;-63
2022/06/15 06:35:30;;;;;;;;;;;21.50;45.40;;;;;;5051272;28;20429;-63
2022/06/15 06:37:57;;;;;;;;;;;21.60;45.50;;;;;;5012505;28;20387;-63
2022/06/15 06:40:25;;;;;;;;;;;21.60;45.40;;;;;;5025318;28;20440;-62
2022/06/15 06:42:52;;;;;;;;;;;21.50;45.30;;;;;;5015818;28;19925;-62
2022/06/15 06:45:19;;;;;;;;;;;21.60;45.40;;;;;;5034336;28;19926;-64
2022/06/15 06:47:45;;;;;;;;;;;21.60;45.50;;;;;;5039408;28;20472;-62
2022/06/15 06:50:12;;;;;;;;;;;21.60;45.50;;;;;;5022044;28;20379;-61
2022/06/15 06:52:39;;;;;;;;;;;21.60;45.50;;;;;;5012369;28;19952;-62
2022/06/15 06:55:07;;;;;;;;;;;21.50;45.40;;;;;;5009013;28;19925;-62
2022/06/15 06:57:35;;;;;;;;;;;21.60;45.50;;;;;;5006419;28;19972;-62
2022/06/15 07:00:02;;;;;;;;;;;21.60;45.40;;;;;;5014130;28;20007;-62
2022/06/15 07:02:29;;;;;;;;;;;21.60;45.50;;;;;;5013956;28;19965;-61
2022/06/15 07:04:55;;;;;;;;;;;21.60;45.40;;;;;;5015958;28;19968;-61
2022/06/15 07:07:22;;;;;;;;;;;21.60;45.40;;;;;;5031731;28;19972;-62
2022/06/15 07:09:49;;;;;;;;;;;21.60;45.50;;;;;;5028560;28;19925;-61
2022/06/15 07:12:16;;;;;;;;;;;21.60;45.50;;;;;;5019859;28;19933;-63
2022/06/15 07:14:44;;;;;;;;;;;21.60;45.50;;;;;;4997070;28;19987;-64
2022/06/15 07:17:11;;;;;;;;;;;21.60;45.50;;;;;;5008914;28;19925;-64
2022/06/15 07:19:38;;;;;;;;;;;21.60;45.50;;;;;;5022192;28;19969;-66
2022/06/15 07:22:05;;;;;;;;;;;21.60;45.50;;;;;;5024717;28;19925;-64
2022/06/15 07:24:32;;;;;;;;;;;21.60;45.50;;;;;;5005381;28;19933;-66
2022/06/15 07:26:59;;;;;;;;;;;21.60;45.60;;;;;;5004879;28;19933;-64
2022/06/15 07:29:25;;;;;;;;;;;21.60;45.60;;;;;;5022008;28;19932;-65
2022/06/15 07:31:54;;;;;;;;;;;21.50;45.50;;;;;;5007703;28;20267;-64
2022/06/15 07:34:21;;;;;;;;;;;21.60;45.60;;;;;;5007034;28;19925;-64
2022/06/15 07:36:48;;;;;;;;;;;21.60;45.60;;;;;;5036226;28;19968;-65
2022/06/15 07:39:15;;;;;;;;;;;21.60;45.60;;;;;;5005964;28;19929;-64
2022/06/15 07:41:42;;;;;;;;;;;21.60;45.50;;;;;;5025269;28;19929;-65
2022/06/15 07:44:09;;;;;;;;;;;21.60;45.60;;;;;;5023794;28;20362;-64
2022/06/15 07:46:36;;;;;;;;;;;21.60;45.60;;;;;;5023033;28;19992;-65
2022/06/15 07:51:51;;;;;;;;;;;21.60;45.60;;;;;;5010087;28;20399;-64
2022/06/15 07:54:18;;;;;;;;;;;21.60;45.50;;;;;;5007403;28;20258;-64
2022/06/15 07:56:45;;;;;;;;;;;21.60;45.50;;;;;;5005328;28;19925;-64
2022/06/15 07:59:12;;;;;;;;;;;21.60;45.50;;;;;;5022276;28;20000;-64
2022/06/15 08:01:40;;;;;;;;;;;21.60;45.40;;;;;;5004126;28;19929;-64
2022/06/15 08:04:08;;;;;;;;;;;21.60;45.40;;;;;;5024456;28;19940;-64
2022/06/15 08:06:34;;;;;;;;;;;21.60;45.40;;;;;;5005907;28;20413;-63
2022/06/15 08:09:01;;;;;;;;;;;21.60;45.40;;;;;;5021531;28;19941;-63
2022/06/15 08:11:28;;;;;;;;;;;21.60;45.40;;;;;;5026071;28;20354;-64
2022/06/15 08:13:55;;;;;;;;;;;21.60;45.40;;;;;;5019575;28;19925;-64
2022/06/15 08:16:22;;;;;;;;;;;21.70;45.40;;;;;;5003024;28;20028;-64
2022/06/15 08:18:50;;;;;;;;;;;21.60;45.30;;;;;;5022985;28;19929;-63
2022/06/15 08:21:19;;;;;;;;;;;21.70;45.40;;;;;;5007310;28;20331;-64
2022/06/15 08:23:46;;;;;;;;;;;21.70;45.40;;;;;;5026907;28;20467;-63
2022/06/15 08:26:13;;;;;;;;;;;21.70;46.00;;;;;;5008865;28;19979;-65
2022/06/15 08:28:41;;;;;;;;;;;21.70;45.40;;;;;;5012081;28;20611;-64
2022/06/15 08:31:08;;;;;;;;;;;21.70;45.30;;;;;;5042697;28;20333;-64
2022/06/15 08:33:35;;;;;;;;;;;21.70;45.30;;;;;;5010121;28;20343;-64
2022/06/15 08:36:01;;;;;;;;;;;21.70;45.30;;;;;;5020738;28;19937;-63
2022/06/15 08:38:29;;;;;;;;;;;21.70;45.30;;;;;;5035676;28;19944;-64
2022/06/15 08:40:57;;;;;;;;;;;21.70;45.30;;;;;;5010562;28;19933;-64
2022/06/15 08:43:27;;;;;;;;;;;21.70;45.20;;;;;;5010193;28;19937;-63
2022/06/15 08:45:56;;;;;;;;;;;21.70;45.30;;;;;;5028189;28;19929;-65
2022/06/15 08:48:29;;;;;;;;;;;21.70;45.20;;;;;;5004678;28;19975;-64
2022/06/15 08:50:57;;;;;;;;;;;21.70;45.20;;;;;;5008565;28;20387;-65
2022/06/15 08:53:24;;;;;;;;;;;21.70;45.10;;;;;;5018632;28;20352;-65
2022/06/15 08:55:54;;;;;;;;;;;21.70;45.00;;;;;;5010128;28;19932;-65
2022/06/15 08:58:22;;;;;;;;;;;21.70;45.00;;;;;;5006346;28;19925;-67
2022/06/15 09:00:48;;;;;;;;;;;21.70;45.00;;;;;;5027633;28;19932;-65
2022/06/15 09:03:21;;;;;;;;;;;21.70;45.00;;;;;;5011033;28;19933;-65
2022/06/15 09:05:53;;;;;;;;;;;21.70;45.00;;;;;;5007894;28;20322;-64
2022/06/15 09:08:23;;;;;;;;;;;21.70;45.00;;;;;;5009681;28;20012;-65
2022/06/15 09:10:51;;;;;;;;;;;21.70;45.10;;;;;;5010815;28;19955;-65
2022/06/15 09:13:26;;;;;;;;;;;21.70;45.10;;;;;;5010354;28;19929;-65
2022/06/15 09:15:55;;;;;;;;;;;21.70;45.10;;;;;;5009294;28;19932;-64
2022/06/15 09:18:36;;;;;;;;;;;21.70;45.00;;;;;;5008620;28;19929;-65
2022/06/15 09:21:04;;;;;;;;;;;21.70;45.10;;;;;;5023624;28;19937;-64
2022/06/15 09:23:31;;;;;;;;;;;21.80;45.20;;;;;;5028787;28;20019;-66
2022/06/15 09:25:59;;;;;;;;;;;21.80;45.10;;;;;;5001833;28;19929;-62
2022/06/15 09:28:29;;;;;;;;;;;21.70;45.00;;;;;;5024073;28;19925;-63
2022/06/15 09:30:57;;;;;;;;;;;21.80;45.10;;;;;;5026822;28;19928;-61
2022/06/15 09:33:29;;;;;;;;;;;21.80;45.10;;;;;;5022678;28;19925;-61
2022/06/15 09:36:02;;;;;;;;;;;21.80;45.10;;;;;;5034693;28;19929;-64
2022/06/15 09:38:29;;;;;;;;;;;21.80;45.10;;;;;;5005489;28;19941;-64
2022/06/15 09:40:57;;;;;;;;;;;21.80;45.10;;;;;;5027594;28;19932;-66
2022/06/15 09:43:30;;;;;;;;;;;21.80;45.10;;;;;;5028919;28;19925;-64
2022/06/15 09:45:59;;;;;;;;;;;21.80;45.00;;;;;;5025109;28;19933;-64
2022/06/15 09:48:27;;;;;;;;;;;21.80;45.00;;;;;;5012410;28;19983;-64
2022/06/15 09:50:55;;;;;;;;;;;21.80;45.00;;;;;;5013666;28;20011;-65
2022/06/15 09:53:28;;;;;;;;;;;21.80;45.00;;;;;;5013059;28;19940;-64
2022/06/15 09:55:56;;;;;;;;;;;21.80;44.90;;;;;;5031876;28;19979;-63
2022/06/15 09:58:25;;;;;;;;;;;21.80;44.90;;;;;;5031178;28;19933;-68
2022/06/15 10:00:53;;;;;;;;;;;21.80;44.80;;;;;;5030653;28;19971;-65
2022/06/15 10:03:21;;;;;;;;;;;21.80;44.80;;;;;;5048457;28;20235;-64
2022/06/15 10:05:48;;;;;;;;;;;21.80;44.80;;;;;;4999292;28;20312;-65
2022/06/15 10:08:15;;;;;;;;;;;21.80;44.80;;;;;;5025964;28;20044;-65
2022/06/15 10:10:43;;;;;;;;;;;21.80;44.80;;;;;;5010819;28;19957;-63
2022/06/15 10:13:26;;;;;;;;;;;21.80;44.80;;;;;;5013692;28;19933;-62
2022/06/15 10:15:55;;;;;;;;;;;21.80;44.80;;;;;;5010271;28;20012;-61
2022/06/15 10:18:24;;;;;;;;;;;21.80;44.80;;;;;;5013546;28;19932;-62
2022/06/15 10:20:56;;;;;;;;;;;21.80;44.70;;;;;;5014987;28;19925;-61
2022/06/15 10:23:23;;;;;;;;;;;21.80;44.70;;;;;;5008988;28;19936;-62
2022/06/15 10:25:51;;;;;;;;;;;21.80;44.70;;;;;;5013610;28;20289;-62
2022/06/15 10:28:21;;;;;;;;;;;21.80;44.70;;;;;;5011211;28;19933;-61
2022/06/15 10:30:54;;;;;;;;;;;21.80;44.70;;;;;;5029294;28;19992;-62
2022/06/15 10:33:20;;;;;;;;;;;21.80;44.70;;;;;;5032172;28;19994;-61
2022/06/15 10:35:53;;;;;;;;;;;21.80;44.60;;;;;;5011466;28;19925;-62
2022/06/15 10:38:20;;;;;;;;;;;21.80;44.60;;;;;;5014639;28;19929;-62
2022/06/15 10:40:55;;;;;;;;;;;21.90;44.50;;;;;;5046470;28;19947;-61
2022/06/15 10:43:22;;;;;;;;;;;21.80;45.00;;;;;;5013299;28;19939;-62
2022/06/15 10:45:57;;;;;;;;;;;21.80;44.40;;;;;;5031133;28;19926;-61
2022/06/15 10:48:25;;;;;;;;;;;21.80;44.30;;;;;;5025682;28;19925;-60
2022/06/15 10:50:53;;;;;;;;;;;21.80;44.30;;;;;;5045302;28;19936;-61
2022/06/15 10:53:26;;;;;;;;;;;21.80;44.40;;;;;;5025583;28;20386;-61
2022/06/15 11:04:09;;;;;;;;;;;21.80;44.50;;;;;;5020946;28;19940;-61
2022/06/15 11:06:37;;;;;;;;;;;21.80;44.40;;;;;;5013818;28;19971;-61
2022/06/15 11:09:06;;;;;;;;;;;21.80;44.20;;;;;;5031971;28;19925;-62
2022/06/15 11:11:34;;;;;;;;;;;21.80;44.10;;;;;;5015903;28;19929;-61
2022/06/15 11:14:04;;;;;;;;;;;21.80;44.10;;;;;;5025901;28;19933;-66
2022/06/15 11:19:17;;;;;;;;;;;21.80;44.00;;;;;;5030019;28;19926;-65
2022/06/15 11:21:46;;;;;;;;;;;21.80;43.70;;;;;;5013595;28;20028;-65
2022/06/15 11:24:15;;;;;;;;;;;21.80;43.20;;;;;;5015265;28;19929;-65
2022/06/15 11:29:38;;;;;;;;;;;21.70;43.10;;;;;;5008180;28;20019;-66
2022/06/15 11:32:12;;;;;;;;;;;21.70;43.20;;;;;;5044857;28;20272;-67
2022/06/15 11:34:41;;;;;;;;;;;21.70;43.20;;;;;;5029808;28;19933;-66
2022/06/15 11:37:10;;;;;;;;;;;21.70;43.30;;;;;;5027186;28;20283;-66
2022/06/15 11:39:38;;;;;;;;;;;21.70;43.40;;;;;;5013377;28;19925;-67
2022/06/15 11:42:05;;;;;;;;;;;21.70;43.40;;;;;;5031085;28;19929;-67
2022/06/15 11:44:32;;;;;;;;;;;21.70;43.50;;;;;;5012986;28;19928;-68
2022/06/15 11:47:03;;;;;;;;;;;21.80;43.60;;;;;;5011393;28;20020;-66
2022/06/15 11:49:35;;;;;;;;;;;21.70;43.50;;;;;;5015892;28;19932;-67
2022/06/15 11:52:06;;;;;;;;;;;21.80;43.60;;;;;;5011193;28;20369;-67
2022/06/15 11:54:39;;;;;;;;;;;21.80;43.50;;;;;;5028560;28;19925;-61
2022/06/15 11:57:07;;;;;;;;;;;21.80;43.50;;;;;;5005155;28;19925;-61
2022/06/15 11:59:36;;;;;;;;;;;21.80;43.60;;;;;;5024837;28;19925;-65
2022/06/15 12:02:07;;;;;;;;;;;21.80;43.60;;;;;;5011160;28;19925;-67
2022/06/15 12:04:46;;;;;;;;;;;21.80;43.50;;;;;;5004552;28;19921;-67
2022/06/15 12:07:14;;;;;;;;;;;21.80;43.50;;;;;;5013837;28;20415;-66
2022/06/15 12:09:45;;;;;;;;;;;21.80;43.50;;;;;;5013734;28;19951;-65
2022/06/15 12:14:58;;;;;;;;;;;21.80;43.50;;;;;;5030631;28;20003;-67
2022/06/15 12:17:26;;;;;;;;;;;21.80;43.40;;;;;;5041196;28;19982;-66
2022/06/15 12:19:55;;;;;;;;;;;21.80;43.40;;;;;;5010795;28;19926;-66
2022/06/15 12:22:23;;;;;;;;;;;21.80;43.40;;;;;;5009130;28;19925;-66
2022/06/15 12:24:51;;;;;;;;;;;21.80;43.40;;;;;;5011989;28;19929;-66
2022/06/15 12:27:22;;;;;;;;;;;21.80;43.30;;;;;;5025987;28;20433;-67
2022/06/15 12:29:51;;;;;;;;;;;21.80;43.30;;;;;;5009357;28;19932;-66
2022/06/15 12:32:29;;;;;;;;;;;21.90;43.40;;;;;;5040449;28;20003;-68
2022/06/15 12:34:59;;;;;;;;;;;21.80;43.30;;;;;;5011554;28;19974;-68
2022/06/15 12:37:27;;;;;;;;;;;21.80;43.40;;;;;;5009361;28;20024;-69
2022/06/15 12:39:56;;;;;;;;;;;21.90;43.40;;;;;;5011419;28;19925;-67
2022/06/15 12:42:22;;;;;;;;;;;21.90;43.40;;;;;;5012340;28;19925;-67
2022/06/15 12:44:52;;;;;;;;;;;21.90;43.40;;;;;;5011757;28;19937;-64
2022/06/15 12:47:20;;;;;;;;;;;21.90;43.40;;;;;;5002417;28;19925;-67
2022/06/15 12:49:49;;;;;;;;;;;21.90;43.50;;;;;;5024577;28;20347;-67
2022/06/15 12:52:19;;;;;;;;;;;21.90;43.50;;;;;;5018046;28;19928;-67
2022/06/15 12:54:50;;;;;;;;;;;21.90;43.50;;;;;;5009844;28;19925;-67
2022/06/15 12:57:18;;;;;;;;;;;21.90;43.50;;;;;;5003441;28;19995;-66
2022/06/15 12:59:48;;;;;;;;;;;21.90;43.40;;;;;;5004778;28;20402;-68
2022/06/15 13:02:15;;;;;;;;;;;21.90;43.40;;;;;;5039231;28;19937;-68
2022/06/15 13:04:45;;;;;;;;;;;21.90;43.40;;;;;;5010254;28;19964;-65
2022/06/15 13:07:23;;;;;;;;;;;21.90;43.30;;;;;;5016864;28;19983;-68
2022/06/15 13:10:09;;;;;;;;;;;21.90;43.30;;;;;;5026676;28;20294;-67
2022/06/15 13:12:36;;;;;;;;;;;21.90;43.30;;;;;;5006399;28;19932;-68
2022/06/15 13:15:04;;;;;;;;;;;21.90;43.30;;;;;;5009939;28;19925;-60
2022/06/15 13:18:08;;;;;;;;;;;21.90;43.30;;;;;;5025985;28;19952;-65
2022/06/15 13:20:34;;;;;;;;;;;21.90;43.20;;;;;;5025461;28;19929;-67
2022/06/15 13:23:03;;;;;;;;;;;22.00;43.30;;;;;;5007515;28;19971;-67
2022/06/15 13:25:30;;;;;;;;;;;21.90;43.20;;;;;;4999312;28;19938;-67
2022/06/15 13:28:15;;;;;;;;;;;21.90;43.10;;;;;;5006898;28;19933;-66
2022/06/15 13:30:51;;;;;;;;;;;22.00;43.20;;;;;;5021868;28;20331;-66
2022/06/15 13:33:18;;;;;;;;;;;21.90;43.00;;;;;;5003949;28;19925;-67
2022/06/15 13:35:45;;;;;;;;;;;22.00;43.10;;;;;;5021848;28;20504;-65
2022/06/15 13:38:28;;;;;;;;;;;22.00;43.10;;;;;;5009706;28;19936;-67
2022/06/15 13:41:15;;;;;;;;;;;22.00;43.20;;;;;;5013038;28;19937;-66
2022/06/15 13:44:12;;;;;;;;;;;22.00;43.20;;;;;;5000658;28;20030;-66
2022/06/15 13:46:39;;;;;;;;;;;22.00;43.20;;;;;;4977364;28;19934;-66
2022/06/15 13:49:06;;;;;;;;;;;22.00;43.20;;;;;;4994148;28;19925;-66
2022/06/15 13:51:34;;;;;;;;;;;22.00;43.20;;;;;;5036433;28;20047;-68
2022/06/15 13:54:07;;;;;;;;;;;22.00;43.10;;;;;;5000692;28;20359;-66
2022/06/15 13:56:34;;;;;;;;;;;22.00;43.20;;;;;;5021992;28;20016;-65
2022/06/15 13:59:05;;;;;;;;;;;22.00;43.20;;;;;;5008183;28;19933;-64
2022/06/15 14:01:37;;;;;;;;;;;22.00;43.20;;;;;;5027873;28;20055;-65
2022/06/15 14:04:12;;;;;;;;;;;22.00;43.20;;;;;;5007163;28;20432;-64
2022/06/15 14:06:41;;;;;;;;;;;22.00;43.10;;;;;;5006702;28;19971;-66
2022/06/15 14:09:13;;;;;;;;;;;22.00;43.20;;;;;;5024326;28;19954;-64
2022/06/15 14:11:48;;;;;;;;;;;22.00;43.10;;;;;;5004881;28;19976;-65
2022/06/15 14:14:18;;;;;;;;;;;22.10;43.20;;;;;;5011434;28;19947;-65
2022/06/15 14:17:14;;;;;;;;;;;22.00;43.20;;;;;;5023705;28;19929;-65
2022/06/15 14:19:44;;;;;;;;;;;22.10;43.20;;;;;;5022519;28;20457;-65
2022/06/15 14:22:11;;;;;;;;;;;22.10;43.20;;;;;;5010301;28;19929;-65
2022/06/15 14:24:40;;;;;;;;;;;22.10;43.20;;;;;;5026413;28;20374;-65
2022/06/15 14:27:07;;;;;;;;;;;22.10;43.20;;;;;;5011016;28;19929;-65
2022/06/15 14:29:35;;;;;;;;;;;22.10;43.20;;;;;;5026260;28;20071;-66
2022/06/15 14:32:02;;;;;;;;;;;22.10;43.20;;;;;;5005658;28;20136;-66
2022/06/15 14:34:29;;;;;;;;;;;22.10;43.20;;;;;;5002661;28;19921;-65
2022/06/15 14:36:57;;;;;;;;;;;22.10;43.20;;;;;;5030574;28;19932;-65
2022/06/15 14:39:24;;;;;;;;;;;22.10;43.20;;;;;;5013356;28;19929;-66
2022/06/15 14:42:01;;;;;;;;;;;22.10;43.20;;;;;;5010113;28;19983;-65
2022/06/15 14:44:28;;;;;;;;;;;22.10;43.20;;;;;;5010668;28;19925;-67
2022/06/15 14:46:57;;;;;;;;;;;22.10;43.20;;;;;;5025458;28;20382;-67
2022/06/15 14:49:24;;;;;;;;;;;22.10;43.20;;;;;;5027549;28;19925;-65